Time;durP1;ratioP1;P1;durP2;ratioP2;P2;SDS_P1;SDS_P2;PMS_P1;PMS_P2;Temp;Humidity;BMP_temperature;BMP_pressure;BME280_temperature;BME280_humidity;BME280_pressure;Samples;Min_cycle;Max_cycle;Signal;HPM_P1;HPM_P2
2022/03/01 00:00:05;;;;;;;48.53;31.33;;;2.80;99.90;;;;;;4976387;28;20389;-73
2022/03/01 00:02:38;;;;;;;48.97;32.15;;;2.80;99.90;;;;;;4975842;28;20173;-74
2022/03/01 00:05:04;;;;;;;48.05;31.85;;;2.90;99.90;;;;;;4975789;28;20027;-76
2022/03/01 00:07:30;;;;;;;49.17;31.23;;;2.90;99.90;;;;;;4975388;28;20388;-73
2022/03/01 00:09:57;;;;;;;49.50;31.35;;;2.80;99.90;;;;;;4975453;28;20038;-76
2022/03/01 00:12:23;;;;;;;46.25;32.40;;;2.80;99.90;;;;;;4974760;28;20045;-74
2022/03/01 00:14:49;;;;;;;48.75;31.20;;;2.70;99.90;;;;;;4974174;28;20039;-74
2022/03/01 00:17:15;;;;;;;55.78;35.03;;;2.80;99.90;;;;;;4974827;28;20046;-70
2022/03/01 00:19:41;;;;;;;60.55;37.47;;;2.80;99.90;;;;;;4975912;28;20058;-78
2022/03/01 00:22:07;;;;;;;55.80;37.00;;;2.80;99.90;;;;;;4974513;28;20031;-78
2022/03/01 00:24:33;;;;;;;64.10;37.03;;;2.80;99.90;;;;;;4975567;28;20102;-75
2022/03/01 00:26:59;;;;;;;63.33;38.95;;;2.80;99.90;;;;;;4975905;28;20039;-72
2022/03/01 00:29:25;;;;;;;61.13;39.08;;;2.80;99.90;;;;;;4976097;28;20381;-75
2022/03/01 00:31:51;;;;;;;58.83;38.10;;;2.90;99.90;;;;;;4975042;28;20029;-77
2022/03/01 00:34:17;;;;;;;64.55;42.20;;;2.90;99.90;;;;;;4990701;28;20061;-77
2022/03/01 00:36:43;;;;;;;61.85;40.38;;;2.80;99.90;;;;;;4975643;28;20023;-71
2022/03/01 00:39:09;;;;;;;60.40;37.60;;;2.90;99.90;;;;;;4975557;28;20038;-77
2022/03/01 00:41:36;;;;;;;60.50;37.70;;;2.90;99.90;;;;;;4975784;28;20097;-74
2022/03/01 00:44:03;;;;;;;56.80;36.88;;;2.90;99.90;;;;;;4975324;28;20082;-73
2022/03/01 00:46:29;;;;;;;56.08;37.05;;;2.90;99.90;;;;;;4974037;28;20043;-70
2022/03/01 00:48:56;;;;;;;60.17;38.15;;;2.90;99.90;;;;;;4975551;28;20393;-74
2022/03/01 00:51:24;;;;;;;55.35;34.83;;;2.80;99.90;;;;;;4975569;28;20018;-73
2022/03/01 00:53:50;;;;;;;56.85;35.65;;;2.80;99.90;;;;;;4974939;28;20034;-73
2022/03/01 00:56:16;;;;;;;60.90;37.28;;;2.80;99.90;;;;;;4974064;28;20418;-73
2022/03/01 00:58:42;;;;;;;58.85;37.58;;;2.80;99.90;;;;;;4975726;28;20027;-78
2022/03/01 01:01:08;;;;;;;60.42;39.30;;;2.80;99.90;;;;;;4975198;28;20377;-75
2022/03/01 01:03:34;;;;;;;58.08;37.10;;;2.90;99.90;;;;;;4974123;28;20492;-73
2022/03/01 01:06:00;;;;;;;60.58;39.17;;;2.90;99.90;;;;;;4975178;28;20023;-72
2022/03/01 01:08:27;;;;;;;60.13;38.88;;;2.90;99.90;;;;;;4974637;28;20038;-71
2022/03/01 01:10:53;;;;;;;56.78;36.97;;;2.90;99.90;;;;;;4990088;28;20023;-75
2022/03/01 01:13:19;;;;;;;55.70;36.90;;;2.90;99.90;;;;;;4975277;28;20030;-76
2022/03/01 01:15:45;;;;;;;64.82;40.20;;;2.90;99.90;;;;;;4974796;28;20078;-75
2022/03/01 01:18:12;;;;;;;59.28;38.65;;;2.90;99.90;;;;;;4974899;28;20035;-74
2022/03/01 01:20:39;;;;;;;63.28;39.88;;;2.90;99.90;;;;;;4974861;28;20023;-76
2022/03/01 01:23:05;;;;;;;58.88;39.30;;;2.90;99.90;;;;;;4975053;28;20138;-73
2022/03/01 01:25:32;;;;;;;64.05;38.97;;;2.90;99.90;;;;;;4957434;28;20401;-74
2022/03/01 01:28:00;;;;;;;56.15;37.00;;;2.80;99.90;;;;;;4973998;28;20037;-69
2022/03/01 01:30:29;;;;;;;56.40;37.92;;;2.90;99.90;;;;;;4974982;28;20019;-76
2022/03/01 01:32:55;;;;;;;51.42;33.13;;;2.90;99.90;;;;;;4974318;28;20027;-75
2022/03/01 01:35:23;;;;;;;56.70;36.72;;;2.80;99.90;;;;;;4974447;28;20030;-75
2022/03/01 01:37:50;;;;;;;55.65;36.13;;;2.90;99.90;;;;;;4972455;28;20113;-75
2022/03/01 01:40:25;;;;;;;53.80;34.20;;;2.80;99.90;;;;;;4955624;28;20026;-76
2022/03/01 01:42:51;;;;;;;59.53;36.03;;;2.80;99.90;;;;;;4954874;28;20031;-73
2022/03/01 01:45:18;;;;;;;51.63;32.95;;;2.90;99.90;;;;;;4955707;28;20122;-75
2022/03/01 01:47:44;;;;;;;56.13;35.38;;;2.90;99.90;;;;;;4957171;28;20039;-71
2022/03/01 01:50:11;;;;;;;52.65;32.45;;;2.90;99.90;;;;;;4970211;28;20038;-76
2022/03/01 01:52:37;;;;;;;50.63;31.80;;;2.80;99.90;;;;;;4974362;28;20469;-76
2022/03/01 01:55:04;;;;;;;50.35;32.13;;;2.90;99.90;;;;;;4972787;28;20033;-77
2022/03/01 01:57:30;;;;;;;49.72;31.33;;;2.90;99.90;;;;;;4974340;28;20109;-75
2022/03/01 01:59:56;;;;;;;47.53;30.67;;;2.90;99.90;;;;;;4973840;28;20495;-72
2022/03/01 02:02:24;;;;;;;53.10;32.60;;;2.90;99.90;;;;;;4973869;28;20106;-72
2022/03/01 02:04:51;;;;;;;48.75;29.67;;;2.90;99.90;;;;;;4969263;28;20153;-72
2022/03/01 02:07:17;;;;;;;46.65;29.02;;;2.80;99.90;;;;;;4954553;28;20041;-75
2022/03/01 02:09:44;;;;;;;47.95;31.13;;;2.80;99.90;;;;;;4965170;28;20023;-75
2022/03/01 02:12:10;;;;;;;46.67;30.92;;;2.80;99.90;;;;;;4974015;28;20035;-77
2022/03/01 02:14:37;;;;;;;44.35;29.02;;;2.80;99.90;;;;;;4973804;28;20031;-77
2022/03/01 02:17:06;;;;;;;43.58;29.80;;;2.80;99.90;;;;;;4973885;28;20030;-76
2022/03/01 02:19:33;;;;;;;45.05;29.23;;;2.70;99.90;;;;;;4973735;28;20070;-77
2022/03/01 02:21:59;;;;;;;38.65;26.48;;;2.70;99.90;;;;;;4972757;28;20592;-76
2022/03/01 02:24:27;;;;;;;45.40;28.60;;;2.70;99.90;;;;;;4974064;28;20045;-78
2022/03/01 02:26:58;;;;;;;42.28;26.13;;;2.70;99.90;;;;;;4972502;28;20070;-73
2022/03/01 02:29:26;;;;;;;40.08;25.63;;;2.60;99.90;;;;;;4973756;28;20042;-75
2022/03/01 02:31:56;;;;;;;38.53;25.02;;;2.50;99.90;;;;;;4973649;28;20103;-75
2022/03/01 02:34:22;;;;;;;37.75;22.58;;;2.50;99.90;;;;;;4973877;28;20027;-77
2022/03/01 02:36:48;;;;;;;37.67;24.95;;;2.50;99.90;;;;;;4972234;28;20369;-74
2022/03/01 02:39:15;;;;;;;39.58;24.25;;;2.40;99.90;;;;;;4973317;28;20031;-78
2022/03/01 02:41:44;;;;;;;35.83;22.70;;;2.40;99.90;;;;;;4988180;28;20069;-79
2022/03/01 02:44:10;;;;;;;38.45;24.25;;;2.40;99.90;;;;;;4972717;28;20089;-77
2022/03/01 02:46:37;;;;;;;37.22;23.70;;;2.30;99.90;;;;;;4973633;28;20031;-76
2022/03/01 02:49:05;;;;;;;40.05;24.33;;;2.30;99.90;;;;;;4973177;28;20063;-77
2022/03/01 02:51:31;;;;;;;35.45;23.23;;;2.30;99.90;;;;;;4972325;28;20041;-78
2022/03/01 02:53:58;;;;;;;35.10;22.38;;;2.30;99.90;;;;;;4973796;28;20113;-74
2022/03/01 02:56:24;;;;;;;33.80;21.80;;;2.30;99.90;;;;;;4973327;28;20030;-77
2022/03/01 02:58:50;;;;;;;32.10;21.40;;;2.20;99.90;;;;;;4972968;28;20034;-76
2022/03/01 03:01:17;;;;;;;32.28;20.42;;;2.20;99.90;;;;;;4973090;28;20030;-73
2022/03/01 03:03:44;;;;;;;31.98;21.08;;;2.20;99.90;;;;;;4973670;28;20054;-73
2022/03/01 03:06:10;;;;;;;30.67;20.33;;;2.20;99.90;;;;;;4973066;28;20045;-69
2022/03/01 03:08:36;;;;;;;32.15;18.42;;;2.20;99.90;;;;;;4973133;28;20030;-75
2022/03/01 03:11:02;;;;;;;32.88;18.80;;;2.10;99.90;;;;;;4973405;28;20434;-74
2022/03/01 03:13:29;;;;;;;33.65;20.02;;;2.00;99.90;;;;;;4972215;28;20035;-75
2022/03/01 03:15:54;;;;;;;30.13;19.85;;;2.00;99.90;;;;;;4972938;28;20023;-73
2022/03/01 03:18:20;;;;;;;34.08;18.95;;;2.10;99.90;;;;;;4973337;28;20378;-73
2022/03/01 03:20:46;;;;;;;30.58;18.30;;;2.10;99.90;;;;;;4972543;28;20455;-71
2022/03/01 03:23:12;;;;;;;34.33;21.58;;;2.10;99.90;;;;;;4972203;28;20042;-73
2022/03/01 03:25:38;;;;;;;38.97;25.02;;;2.10;99.90;;;;;;4972817;28;20097;-72
2022/03/01 03:28:04;;;;;;;39.40;25.60;;;2.10;99.90;;;;;;4972866;28;20069;-75
2022/03/01 03:30:30;;;;;;;37.33;23.17;;;2.10;99.90;;;;;;4972943;28;20030;-75
2022/03/01 03:32:57;;;;;;;41.08;24.92;;;2.00;99.90;;;;;;4972945;28;20151;-73
2022/03/01 03:35:22;;;;;;;38.63;24.52;;;2.00;99.90;;;;;;4973016;28;20098;-70
2022/03/01 03:37:48;;;;;;;32.85;21.33;;;2.00;99.90;;;;;;4972662;28;20126;-72
2022/03/01 03:40:14;;;;;;;29.35;18.40;;;2.00;99.90;;;;;;4972996;28;20019;-73
2022/03/01 03:42:42;;;;;;;29.83;19.52;;;1.90;99.90;;;;;;4972438;28;20031;-69
2022/03/01 03:45:09;;;;;;;28.45;19.35;;;1.90;99.90;;;;;;4972988;28;20038;-74
2022/03/01 03:47:35;;;;;;;30.33;19.80;;;1.90;99.90;;;;;;4972788;28;20062;-72
2022/03/01 03:50:01;;;;;;;32.40;20.50;;;1.80;99.90;;;;;;4972528;28;20483;-72
2022/03/01 03:52:27;;;;;;;37.50;24.25;;;1.80;99.90;;;;;;4972859;28;20024;-72
2022/03/01 03:54:53;;;;;;;36.90;23.45;;;1.80;99.90;;;;;;4971568;28;20034;-73
2022/03/01 03:57:19;;;;;;;36.10;22.80;;;1.80;99.90;;;;;;4974066;28;20089;-71
2022/03/01 03:59:45;;;;;;;31.05;21.85;;;1.80;99.90;;;;;;4976356;28;20099;-70
2022/03/01 04:02:11;;;;;;;32.20;21.60;;;1.80;99.90;;;;;;4976501;28;20474;-73
2022/03/01 04:04:37;;;;;;;38.20;24.05;;;1.80;99.90;;;;;;4976250;28;20389;-70
2022/03/01 04:07:04;;;;;;;37.53;23.02;;;1.70;99.90;;;;;;4956731;28;20054;-73
2022/03/01 04:09:30;;;;;;;36.67;22.98;;;1.70;99.90;;;;;;4964985;28;20034;-72
2022/03/01 04:11:56;;;;;;;38.38;23.63;;;1.60;99.90;;;;;;4976088;28;20045;-71
2022/03/01 04:14:22;;;;;;;34.03;21.63;;;1.60;99.90;;;;;;4976066;28;20038;-71
2022/03/01 04:16:48;;;;;;;36.70;22.55;;;1.50;99.90;;;;;;4975915;28;20381;-73
2022/03/01 04:19:17;;;;;;;36.67;23.33;;;1.60;99.90;;;;;;4975451;28;20111;-71
2022/03/01 04:21:43;;;;;;;34.58;23.88;;;1.60;99.90;;;;;;4975697;28;20057;-71
2022/03/01 04:24:09;;;;;;;37.08;23.33;;;1.60;99.90;;;;;;4975773;28;20062;-72
2022/03/01 04:26:35;;;;;;;32.00;21.52;;;1.60;99.90;;;;;;4974887;28;20047;-74
2022/03/01 04:29:02;;;;;;;37.25;23.05;;;1.60;99.90;;;;;;4975108;28;20080;-74
2022/03/01 04:31:29;;;;;;;32.33;21.17;;;1.40;99.90;;;;;;4975815;28;20022;-72
2022/03/01 04:33:56;;;;;;;37.22;22.85;;;1.40;99.90;;;;;;4975696;28;20497;-70
2022/03/01 04:36:22;;;;;;;33.10;21.60;;;1.40;99.90;;;;;;4975301;28;20018;-76
2022/03/01 04:38:49;;;;;;;35.30;21.40;;;1.30;99.90;;;;;;4974496;28;20193;-70
2022/03/01 04:41:14;;;;;;;32.13;20.42;;;1.30;99.90;;;;;;4975553;28;20484;-73
2022/03/01 04:43:41;;;;;;;33.35;21.25;;;1.40;99.90;;;;;;4975639;28;20050;-73
2022/03/01 04:46:10;;;;;;;29.50;20.13;;;1.30;99.90;;;;;;4974961;28;20054;-69
2022/03/01 04:48:37;;;;;;;30.10;20.42;;;1.30;99.90;;;;;;4975450;28;20582;-76
2022/03/01 04:51:04;;;;;;;26.80;19.02;;;1.30;99.90;;;;;;4973946;28;20031;-69
2022/03/01 04:53:30;;;;;;;31.52;20.40;;;1.30;99.90;;;;;;4975009;28;20030;-74
2022/03/01 04:55:56;;;;;;;31.98;19.15;;;1.30;99.90;;;;;;4975351;28;20098;-72
2022/03/01 04:58:22;;;;;;;30.75;19.55;;;1.30;99.90;;;;;;4974761;28;20114;-70
2022/03/01 05:00:48;;;;;;;29.75;19.08;;;1.20;99.90;;;;;;4975427;28;20023;-71
2022/03/01 05:03:14;;;;;;;30.08;19.35;;;1.20;99.90;;;;;;4974991;28;20511;-72
2022/03/01 05:05:41;;;;;;;27.92;18.48;;;1.20;99.90;;;;;;4974505;28;20113;-72
2022/03/01 05:08:07;;;;;;;32.35;19.30;;;1.20;99.90;;;;;;4972766;28;20039;-75
2022/03/01 05:10:33;;;;;;;30.95;18.80;;;1.20;99.90;;;;;;4974351;28;20041;-72
2022/03/01 05:13:01;;;;;;;27.38;16.73;;;1.10;99.90;;;;;;4973149;28;20027;-72
2022/03/01 05:15:28;;;;;;;27.30;17.67;;;1.00;99.90;;;;;;4975127;28;20034;-75
2022/03/01 05:17:55;;;;;;;26.90;18.58;;;1.00;99.90;;;;;;4974161;28;20022;-74
2022/03/01 05:20:23;;;;;;;27.50;19.00;;;1.00;99.90;;;;;;4974117;28;20050;-74
2022/03/01 05:22:49;;;;;;;27.77;18.02;;;1.00;99.90;;;;;;4973960;28;20480;-75
2022/03/01 05:25:17;;;;;;;26.90;17.70;;;1.00;99.90;;;;;;4973903;28;20030;-75
2022/03/01 05:27:46;;;;;;;23.05;14.27;;;1.00;99.90;;;;;;4973761;28;20034;-75
2022/03/01 05:30:15;;;;;;;23.33;14.65;;;1.00;99.90;;;;;;4974794;28;20058;-72
2022/03/01 05:32:44;;;;;;;22.27;12.98;;;0.90;99.90;;;;;;4974400;28;20110;-73
2022/03/01 05:35:17;;;;;;;21.90;13.93;;;1.10;99.90;;;;;;4989591;28;20477;-70
2022/03/01 05:37:46;;;;;;;22.65;13.98;;;1.40;99.90;;;;;;4975784;28;20027;-72
2022/03/01 05:40:13;;;;;;;23.45;14.63;;;1.60;99.90;;;;;;4958298;28;20031;-72
2022/03/01 05:42:39;;;;;;;28.70;16.63;;;1.60;99.90;;;;;;4974401;28;20535;-72
2022/03/01 05:45:05;;;;;;;27.70;18.48;;;1.50;99.90;;;;;;4974780;28;20043;-71
2022/03/01 05:47:32;;;;;;;30.42;17.60;;;1.50;99.90;;;;;;4974496;28;20034;-72
2022/03/01 05:49:58;;;;;;;23.73;14.75;;;1.40;99.90;;;;;;4973320;28;20023;-72
2022/03/01 05:52:24;;;;;;;21.73;15.13;;;1.40;99.90;;;;;;4974107;28;20027;-72
2022/03/01 05:54:50;;;;;;;22.13;13.93;;;1.40;99.90;;;;;;4974494;28;20381;-72
2022/03/01 05:57:17;;;;;;;24.80;15.98;;;1.30;99.90;;;;;;4974508;28;20101;-72
2022/03/01 05:59:43;;;;;;;23.80;14.50;;;1.40;99.90;;;;;;4974825;28;20035;-72
2022/03/01 06:02:09;;;;;;;28.35;15.18;;;1.30;99.90;;;;;;4973759;28;20393;-72
2022/03/01 06:04:35;;;;;;;24.17;14.70;;;1.40;99.90;;;;;;4975021;28;20023;-72
2022/03/01 06:07:01;;;;;;;22.50;15.10;;;1.50;99.90;;;;;;4972993;28;20030;-72
2022/03/01 06:09:27;;;;;;;21.80;14.95;;;1.60;99.90;;;;;;4974341;28;20042;-72
2022/03/01 06:11:53;;;;;;;22.52;13.98;;;1.60;99.90;;;;;;4974826;28;20379;-71
2022/03/01 06:14:20;;;;;;;20.20;13.10;;;1.90;99.90;;;;;;4973871;28;20039;-71
2022/03/01 06:16:46;;;;;;;17.90;10.93;;;2.30;99.90;;;;;;4988433;28;20030;-71
2022/03/01 06:19:12;;;;;;;20.55;11.27;;;2.70;99.90;;;;;;4973379;28;20093;-72
2022/03/01 06:21:38;;;;;;;17.52;10.23;;;2.60;99.90;;;;;;4987993;28;20129;-72
2022/03/01 06:24:05;;;;;;;22.58;10.63;;;2.40;99.90;;;;;;4973758;28;20026;-71
2022/03/01 06:26:32;;;;;;;19.05;10.27;;;2.40;99.90;;;;;;4973798;28;20122;-71
2022/03/01 06:28:58;;;;;;;18.98;10.98;;;2.30;99.90;;;;;;4972478;28;20129;-71
2022/03/01 06:31:25;;;;;;;17.60;9.95;;;2.30;99.90;;;;;;4973579;28;20102;-71
2022/03/01 06:33:51;;;;;;;17.80;10.52;;;2.30;99.90;;;;;;4973322;28;20385;-72
2022/03/01 06:36:17;;;;;;;17.63;11.20;;;2.30;99.90;;;;;;4973191;28;20065;-72
2022/03/01 06:38:43;;;;;;;20.23;11.02;;;2.30;99.90;;;;;;4975833;28;20042;-71
2022/03/01 06:41:09;;;;;;;17.98;10.43;;;2.30;99.90;;;;;;4975136;28;20035;-72
2022/03/01 06:43:35;;;;;;;18.10;9.68;;;2.30;99.90;;;;;;4973482;28;20047;-72
2022/03/01 06:46:01;;;;;;;19.13;11.50;;;2.40;99.90;;;;;;4973937;28;20035;-72
2022/03/01 06:48:27;;;;;;;21.38;12.15;;;2.40;99.90;;;;;;4973380;28;20147;-71
2022/03/01 06:50:54;;;;;;;25.50;12.75;;;2.50;99.90;;;;;;4973078;28;20031;-72
2022/03/01 06:53:20;;;;;;;27.70;16.50;;;2.50;99.90;;;;;;4973385;28;20041;-73
2022/03/01 06:55:46;;;;;;;18.52;10.68;;;2.70;99.90;;;;;;4973154;28;20023;-72
2022/03/01 06:58:12;;;;;;;19.00;9.57;;;2.80;99.90;;;;;;4973303;28;20388;-72
2022/03/01 07:00:38;;;;;;;13.75;8.73;;;2.60;99.90;;;;;;4972562;28;20077;-72
2022/03/01 07:03:05;;;;;;;18.90;9.65;;;2.60;99.90;;;;;;4973063;28;20057;-72
2022/03/01 07:05:32;;;;;;;17.30;10.05;;;2.70;99.90;;;;;;4972796;28;20089;-72
2022/03/01 07:07:58;;;;;;;15.02;8.75;;;2.80;99.90;;;;;;4973223;28;20043;-72
2022/03/01 07:10:24;;;;;;;17.95;9.45;;;2.90;99.90;;;;;;4973765;28;20085;-72
2022/03/01 07:12:51;;;;;;;14.40;8.63;;;3.00;99.90;;;;;;4972705;28;20027;-73
2022/03/01 07:15:19;;;;;;;18.00;8.98;;;2.90;99.90;;;;;;4973049;28;20053;-71
2022/03/01 07:17:46;;;;;;;17.83;9.30;;;2.80;99.90;;;;;;4973395;28;20023;-72
2022/03/01 07:20:13;;;;;;;21.15;10.30;;;2.80;99.90;;;;;;4971910;28;20034;-72
2022/03/01 07:22:39;;;;;;;18.33;8.50;;;2.70;99.90;;;;;;4974895;28;20528;-72
2022/03/01 07:25:06;;;;;;;15.57;8.88;;;2.80;99.90;;;;;;4972614;28;20106;-72
2022/03/01 07:27:32;;;;;;;19.27;10.07;;;2.90;99.90;;;;;;4988225;28;20050;-70
2022/03/01 07:29:58;;;;;;;21.45;9.98;;;3.10;99.90;;;;;;4974422;28;20307;-72
2022/03/01 07:32:24;;;;;;;18.83;10.10;;;3.40;99.90;;;;;;4974326;28;20070;-72
2022/03/01 07:34:50;;;;;;;20.23;9.85;;;3.60;99.90;;;;;;4975674;28;20101;-73
2022/03/01 07:37:16;;;;;;;15.98;9.60;;;3.50;99.90;;;;;;4975373;28;20501;-70
2022/03/01 07:39:43;;;;;;;19.98;11.68;;;3.00;99.90;;;;;;4976240;28;20625;-72
2022/03/01 07:42:09;;;;;;;16.70;9.57;;;3.20;99.90;;;;;;4975629;28;20030;-72
2022/03/01 07:44:37;;;;;;;12.55;8.43;;;3.40;99.90;;;;;;4975566;28;20057;-72
2022/03/01 07:47:07;;;;;;;18.15;10.30;;;3.40;99.90;;;;;;4976239;28;20050;-72
2022/03/01 07:49:34;;;;;;;18.95;10.60;;;3.30;99.90;;;;;;4975378;28;20569;-72
2022/03/01 07:52:00;;;;;;;18.27;9.40;;;3.40;99.90;;;;;;4974917;28;20031;-72
2022/03/01 07:54:26;;;;;;;15.63;8.93;;;3.40;99.90;;;;;;4977691;28;20026;-72
2022/03/01 07:56:52;;;;;;;14.30;9.20;;;3.50;99.90;;;;;;4976536;28;20023;-71
2022/03/01 07:59:18;;;;;;;17.30;9.07;;;3.60;99.90;;;;;;4975028;28;20400;-70
2022/03/01 08:01:44;;;;;;;17.17;9.07;;;3.60;99.90;;;;;;4975527;28;20030;-73
2022/03/01 08:04:10;;;;;;;22.45;12.73;;;3.40;99.90;;;;;;4976364;28;20042;-72
2022/03/01 08:06:36;;;;;;;17.27;10.63;;;3.50;99.90;;;;;;4975939;28;20031;-71
2022/03/01 08:09:02;;;;;;;20.02;10.07;;;3.70;99.90;;;;;;4975525;28;20046;-71
2022/03/01 08:11:28;;;;;;;19.48;10.48;;;3.80;99.90;;;;;;4975814;28;20385;-72
2022/03/01 08:13:54;;;;;;;24.15;14.75;;;3.50;99.90;;;;;;4975024;28;20034;-72
2022/03/01 08:16:20;;;;;;;18.98;12.18;;;3.50;99.90;;;;;;4957108;28;20045;-71
2022/03/01 08:18:46;;;;;;;22.40;14.85;;;3.00;99.90;;;;;;4972557;28;20110;-72
2022/03/01 08:21:13;;;;;;;18.08;10.95;;;3.20;99.90;;;;;;4987855;28;20117;-72
2022/03/01 08:23:39;;;;;;;28.00;17.58;;;2.90;99.90;;;;;;4971957;28;20057;-72
2022/03/01 08:26:05;;;;;;;27.13;16.73;;;3.10;99.90;;;;;;4974347;28;20019;-71
2022/03/01 08:28:32;;;;;;;21.85;12.73;;;3.10;99.90;;;;;;4974401;28;20111;-72
2022/03/01 08:30:58;;;;;;;23.23;15.15;;;2.90;99.90;;;;;;4975217;28;20030;-72
2022/03/01 08:33:25;;;;;;;21.70;13.15;;;2.70;99.90;;;;;;4973728;28;20073;-71
2022/03/01 08:35:53;;;;;;;25.27;14.50;;;2.50;99.90;;;;;;4972441;28;20023;-72
2022/03/01 08:38:18;;;;;;;24.83;15.38;;;2.30;99.90;;;;;;4972003;28;20043;-71
2022/03/01 08:40:44;;;;;;;26.25;14.90;;;2.30;99.90;;;;;;4974505;28;20483;-72
2022/03/01 08:43:12;;;;;;;29.63;17.10;;;2.30;99.90;;;;;;4973738;28;20062;-72
2022/03/01 08:45:40;;;;;;;25.80;16.40;;;2.30;99.90;;;;;;4975567;28;20064;-72
2022/03/01 08:48:06;;;;;;;28.02;16.45;;;2.50;99.90;;;;;;4973940;28;20031;-71
2022/03/01 08:50:34;;;;;;;26.48;16.70;;;2.60;99.90;;;;;;4975335;28;20066;-72
2022/03/01 08:53:00;;;;;;;27.38;17.35;;;2.60;99.90;;;;;;4974919;28;20030;-72
2022/03/01 08:55:27;;;;;;;25.00;16.83;;;2.60;99.90;;;;;;4975826;28;20437;-71
2022/03/01 08:57:53;;;;;;;28.35;17.58;;;2.80;99.90;;;;;;4975140;28;20030;-72
2022/03/01 09:00:19;;;;;;;26.83;15.80;;;2.80;99.90;;;;;;4975004;28;20027;-72
2022/03/01 09:02:45;;;;;;;26.70;16.90;;;2.90;99.90;;;;;;4975090;28;20097;-72
2022/03/01 09:05:11;;;;;;;24.15;16.35;;;2.90;99.90;;;;;;4973348;28;20039;-72
2022/03/01 09:07:38;;;;;;;21.38;14.13;;;3.10;99.90;;;;;;4973390;28;20085;-71
2022/03/01 09:10:06;;;;;;;23.77;15.45;;;3.20;99.90;;;;;;4975172;28;20039;-71
2022/03/01 09:12:32;;;;;;;27.73;17.63;;;3.20;99.90;;;;;;4973801;28;20425;-72
2022/03/01 09:14:58;;;;;;;30.48;19.40;;;3.30;99.90;;;;;;4957794;28;20146;-71
2022/03/01 09:17:24;;;;;;;24.48;14.40;;;3.60;99.90;;;;;;4975918;28;20023;-72
2022/03/01 09:19:50;;;;;;;25.55;15.52;;;3.90;99.90;;;;;;4974872;28;20507;-71
2022/03/01 09:22:16;;;;;;;25.38;15.52;;;4.10;99.90;;;;;;4972055;28;20093;-71
2022/03/01 09:24:44;;;;;;;26.70;14.70;;;4.20;99.90;;;;;;4974604;28;20615;-72
2022/03/01 09:27:10;;;;;;;27.05;15.52;;;4.40;99.90;;;;;;4974646;28;20038;-72
2022/03/01 09:29:36;;;;;;;22.38;15.00;;;4.60;99.90;;;;;;4974842;28;20121;-72
2022/03/01 09:32:03;;;;;;;26.70;16.20;;;4.80;99.90;;;;;;4971372;28;20071;-72
2022/03/01 09:34:29;;;;;;;22.92;15.30;;;4.90;99.90;;;;;;4969316;28;20035;-72
2022/03/01 09:36:59;;;;;;;26.23;14.20;;;5.20;99.90;;;;;;4955295;28;20503;-72
2022/03/01 09:39:26;;;;;;;22.65;14.00;;;5.00;99.90;;;;;;4954333;28;20043;-72
2022/03/01 09:41:53;;;;;;;23.02;14.23;;;5.60;99.90;;;;;;4969489;28;20408;-72
2022/03/01 09:44:19;;;;;;;25.17;14.60;;;5.90;99.90;;;;;;4973540;28;20047;-70
2022/03/01 09:46:45;;;;;;;24.30;14.85;;;5.80;99.90;;;;;;4973621;28;20038;-71
2022/03/01 09:49:13;;;;;;;22.73;13.95;;;5.40;99.90;;;;;;4978275;28;20054;-71
2022/03/01 09:51:40;;;;;;;22.58;14.57;;;5.20;99.90;;;;;;4973651;28;20073;-72
2022/03/01 09:54:06;;;;;;;23.33;13.98;;;5.50;99.90;;;;;;4973240;28;20026;-72
2022/03/01 09:56:32;;;;;;;21.73;14.00;;;5.60;99.90;;;;;;4974020;28;20027;-72
2022/03/01 09:59:00;;;;;;;25.50;15.00;;;5.60;99.90;;;;;;4974005;28;20088;-72
2022/03/01 10:01:26;;;;;;;23.63;14.05;;;5.30;99.90;;;;;;4973738;28;20027;-72
2022/03/01 10:03:53;;;;;;;24.08;15.15;;;5.10;99.90;;;;;;4974234;28;20114;-72
2022/03/01 10:06:22;;;;;;;26.17;15.82;;;5.00;99.90;;;;;;4973316;28;20027;-72
2022/03/01 10:08:55;;;;;;;26.55;15.88;;;5.00;99.90;;;;;;4974233;28;20051;-72
2022/03/01 10:11:24;;;;;;;26.17;15.88;;;5.00;99.90;;;;;;4973396;28;20019;-71
2022/03/01 10:13:57;;;;;;;32.35;21.58;;;4.70;99.90;;;;;;4973222;28;20089;-71
2022/03/01 10:16:24;;;;;;;31.55;17.05;;;4.70;99.90;;;;;;4973825;28;20030;-71
2022/03/01 10:18:52;;;;;;;33.03;22.05;;;4.70;99.90;;;;;;4972154;28;20027;-70
2022/03/01 10:21:20;;;;;;;31.80;17.65;;;4.70;99.90;;;;;;4973649;28;20031;-70
2022/03/01 10:23:58;;;;;;;45.03;28.58;;;4.20;99.90;;;;;;4972464;28;20050;-71
2022/03/01 10:26:30;;;;;;;40.92;24.98;;;3.90;99.90;;;;;;4973279;28;20031;-71
2022/03/01 10:28:58;;;;;;;49.70;30.30;;;3.80;99.90;;;;;;4973591;28;20554;-70
2022/03/01 10:31:30;;;;;;;58.63;33.55;;;3.70;99.90;;;;;;4974543;28;20019;-70
2022/03/01 10:34:02;;;;;;;43.40;25.10;;;3.80;99.90;;;;;;4976137;28;20039;-72
2022/03/01 10:36:31;;;;;;;40.97;23.90;;;3.70;99.90;;;;;;4978983;28;20023;-72
2022/03/01 10:39:02;;;;;;;53.58;33.22;;;3.60;99.90;;;;;;4991184;28;20030;-71
2022/03/01 10:41:31;;;;;;;45.13;28.15;;;3.60;99.90;;;;;;4973194;28;20062;-71
2022/03/01 10:43:59;;;;;;;54.45;31.65;;;3.60;99.90;;;;;;4971420;28;20174;-71
2022/03/01 10:46:27;;;;;;;44.38;27.65;;;3.50;99.90;;;;;;4973447;28;20031;-70
2022/03/01 10:49:08;;;;;;;45.15;29.33;;;3.50;99.90;;;;;;4972890;28;20126;-71
2022/03/01 10:51:48;;;;;;;54.47;31.92;;;3.60;99.90;;;;;;4973171;28;20023;-71
2022/03/01 10:54:34;;;;;;;42.50;26.33;;;3.70;99.90;;;;;;4973415;28;20037;-70
2022/03/01 10:57:03;;;;;;;42.30;25.05;;;3.70;99.90;;;;;;4973753;28;20113;-70
2022/03/01 10:59:33;;;;;;;53.13;31.60;;;3.70;99.90;;;;;;4973331;28;20034;-71
2022/03/01 11:02:00;;;;;;;44.88;29.20;;;3.90;99.90;;;;;;4971697;28;20026;-71
2022/03/01 11:04:27;;;;;;;44.70;26.13;;;4.00;99.90;;;;;;4971751;28;20069;-72
2022/03/01 11:06:55;;;;;;;36.00;21.83;;;4.20;99.90;;;;;;4974108;28;20038;-71
2022/03/01 11:09:25;;;;;;;37.72;22.95;;;4.20;99.90;;;;;;4971278;28;20071;-71
2022/03/01 11:11:53;;;;;;;33.65;19.98;;;4.20;99.90;;;;;;4974584;28;20034;-71
2022/03/01 11:14:43;;;;;;;40.47;23.98;;;4.10;99.90;;;;;;4977879;28;20117;-71
2022/03/01 11:17:27;;;;;;;36.25;23.35;;;4.10;99.90;;;;;;4975724;28;20027;-71
2022/03/01 11:19:58;;;;;;;34.50;20.83;;;4.10;99.90;;;;;;4976136;28;20078;-73
2022/03/01 11:22:27;;;;;;;39.17;24.80;;;4.00;99.90;;;;;;4972879;28;20484;-73
2022/03/01 11:24:54;;;;;;;57.65;32.33;;;4.10;99.90;;;;;;4975266;28;20269;-73
2022/03/01 11:27:24;;;;;;;46.15;26.20;;;4.10;99.90;;;;;;4977036;28;20029;-73
2022/03/01 11:29:52;;;;;;;42.25;26.35;;;4.10;99.90;;;;;;4976242;28;20030;-73
2022/03/01 11:32:22;;;;;;;41.80;25.25;;;4.20;99.90;;;;;;4977106;28;20019;-73
2022/03/01 11:35:00;;;;;;;46.65;26.30;;;4.40;99.90;;;;;;4976964;28;20023;-72
2022/03/01 11:37:26;;;;;;;36.70;23.35;;;4.50;99.90;;;;;;4976877;28;20027;-73
2022/03/01 11:39:57;;;;;;;44.17;25.25;;;4.50;99.90;;;;;;4976693;28;20031;-73
2022/03/01 11:42:23;;;;;;;40.35;26.02;;;4.50;99.90;;;;;;4976569;28;20059;-72
2022/03/01 11:44:54;;;;;;;43.67;25.98;;;4.60;99.90;;;;;;4976672;28;20607;-73
2022/03/01 11:47:31;;;;;;;41.47;25.05;;;4.60;99.90;;;;;;4976617;28;20062;-72
2022/03/01 11:49:57;;;;;;;43.97;26.23;;;4.50;99.90;;;;;;4976653;28;20122;-73
2022/03/01 11:52:26;;;;;;;45.35;27.38;;;4.60;99.90;;;;;;4976659;28;20440;-73
2022/03/01 11:54:56;;;;;;;39.90;26.00;;;4.50;99.90;;;;;;4975135;28;20031;-73
2022/03/01 11:57:25;;;;;;;38.42;25.13;;;4.50;99.90;;;;;;4976896;28;20070;-72
2022/03/01 11:59:55;;;;;;;39.33;25.08;;;4.40;99.90;;;;;;4976808;28;20037;-73
2022/03/01 12:02:27;;;;;;;41.67;25.83;;;4.30;99.90;;;;;;4976324;28;20059;-72
2022/03/01 12:04:58;;;;;;;42.88;25.40;;;4.50;99.90;;;;;;4977621;28;20086;-71
2022/03/01 12:07:30;;;;;;;47.35;27.30;;;4.50;99.90;;;;;;4976694;28;20045;-72
2022/03/01 12:10:03;;;;;;;42.75;26.75;;;4.60;99.90;;;;;;4973717;28;20061;-73
2022/03/01 12:12:45;;;;;;;49.55;28.70;;;4.70;99.90;;;;;;4971399;28;20027;-72
2022/03/01 12:15:12;;;;;;;48.47;30.83;;;4.60;99.90;;;;;;4975810;28;20377;-72
2022/03/01 12:17:48;;;;;;;46.92;27.08;;;4.50;99.90;;;;;;4974725;28;20033;-72
2022/03/01 12:20:16;;;;;;;40.88;25.50;;;4.40;99.90;;;;;;4976131;28;20045;-73
2022/03/01 12:23:09;;;;;;;45.83;26.45;;;4.40;99.90;;;;;;4975317;28;20062;-73
2022/03/01 12:25:37;;;;;;;43.15;26.40;;;4.40;99.90;;;;;;4977328;28;20478;-71
2022/03/01 12:28:04;;;;;;;46.00;26.95;;;4.30;99.90;;;;;;4976097;28;20035;-72
2022/03/01 12:30:33;;;;;;;46.22;28.70;;;4.40;99.90;;;;;;4976123;28;20066;-73
2022/03/01 12:32:59;;;;;;;42.17;25.50;;;4.50;99.90;;;;;;4974650;28;20118;-72
2022/03/01 12:35:27;;;;;;;47.80;27.30;;;4.60;99.90;;;;;;4976053;28;20122;-73
2022/03/01 12:38:05;;;;;;;44.83;28.50;;;4.70;99.90;;;;;;4976468;28;20031;-72